sensor_id;sensor_type;location;lat;lon;timestamp;pressure;altitude;pressure_sealevel;temperature;humidity
31299;BME280;17927;52.350;13.402;2023-04-24T00:00:00;99923.59;;;16.48;49.13
31299;BME280;17927;52.350;13.402;2023-04-24T00:02:25;99920.22;;;16.46;49.37
31299;BME280;17927;52.350;13.402;2023-04-24T00:04:51;99926.91;;;16.43;49.41
31299;BME280;17927;52.350;13.402;2023-04-24T00:07:16;99915.41;;;16.41;49.48
31299;BME280;17927;52.350;13.402;2023-04-24T00:09:43;99912.03;;;16.39;49.67
31299;BME280;17927;52.350;13.402;2023-04-24T00:12:09;99901.31;;;16.38;49.61
31299;BME280;17927;52.350;13.402;2023-04-24T00:14:35;99900.66;;;16.36;49.65
31299;BME280;17927;52.350;13.402;2023-04-24T00:17:00;99893.75;;;16.33;49.73
31299;BME280;17927;52.350;13.402;2023-04-24T00:19:27;99899.59;;;16.30;49.90
31299;BME280;17927;52.350;13.402;2023-04-24T00:21:53;99889.94;;;16.27;50.19
31299;BME280;17927;52.350;13.402;2023-04-24T00:24:18;99879.44;;;16.24;50.23
31299;BME280;17927;52.350;13.402;2023-04-24T00:26:44;99888.88;;;16.22;50.00
31299;BME280;17927;52.350;13.402;2023-04-24T00:29:09;99877.31;;;16.20;50.15
31299;BME280;17927;52.350;13.402;2023-04-24T00:31:34;99872.28;;;16.17;50.47
31299;BME280;17927;52.350;13.402;2023-04-24T00:34:00;99870.81;;;16.14;50.59
31299;BME280;17927;52.350;13.402;2023-04-24T00:36:26;99868.91;;;16.14;50.62
31299;BME280;17927;52.350;13.402;2023-04-24T00:38:52;99863.88;;;16.11;50.46
31299;BME280;17927;52.350;13.402;2023-04-24T00:41:17;99855.91;;;16.10;50.45
31299;BME280;17927;52.350;13.402;2023-04-24T00:43:42;99860.69;;;16.08;50.54
31299;BME280;17927;52.350;13.402;2023-04-24T00:46:08;99854.44;;;16.07;50.76
31299;BME280;17927;52.350;13.402;2023-04-24T00:48:34;99859.22;;;16.05;50.80
31299;BME280;17927;52.350;13.402;2023-04-24T00:50:59;99857.75;;;16.03;50.85
31299;BME280;17927;52.350;13.402;2023-04-24T00:53:24;99857.94;;;16.01;51.08
31299;BME280;17927;52.350;13.402;2023-04-24T00:55:50;99860.03;;;15.99;51.14
31299;BME280;17927;52.350;13.402;2023-04-24T00:58:15;99865.47;;;15.99;51.15
31299;BME280;17927;52.350;13.402;2023-04-24T01:00:41;99864.81;;;15.97;51.23
31299;BME280;17927;52.350;13.402;2023-04-24T01:03:06;99858.56;;;15.96;51.58
31299;BME280;17927;52.350;13.402;2023-04-24T01:05:32;99867.75;;;15.95;51.47
31299;BME280;17927;52.350;13.402;2023-04-24T01:07:58;99860.63;;;15.94;51.34
31299;BME280;17927;52.350;13.402;2023-04-24T01:10:24;99861.66;;;15.93;51.39
31299;BME280;17927;52.350;13.402;2023-04-24T01:12:51;99866.28;;;15.93;51.64
31299;BME280;17927;52.350;13.402;2023-04-24T01:15:17;99869.00;;;15.93;51.47
31299;BME280;17927;52.350;13.402;2023-04-24T01:17:42;99861.03;;;15.91;51.67
31299;BME280;17927;52.350;13.402;2023-04-24T01:20:07;99852.22;;;15.89;51.78
31299;BME280;17927;52.350;13.402;2023-04-24T01:22:34;99850.75;;;15.87;51.48
31299;BME280;17927;52.350;13.402;2023-04-24T01:24:59;99846.31;;;15.86;51.77
31299;BME280;17927;52.350;13.402;2023-04-24T01:27:25;99841.06;;;15.84;51.85
31299;BME280;17927;52.350;13.402;2023-04-24T01:29:51;99848.38;;;15.83;52.04
31299;BME280;17927;52.350;13.402;2023-04-24T01:32:17;99843.78;;;15.84;52.11
31299;BME280;17927;52.350;13.402;2023-04-24T01:34:43;99837.47;;;15.83;52.08
31299;BME280;17927;52.350;13.402;2023-04-24T01:37:09;99841.25;;;15.82;52.19
31299;BME280;17927;52.350;13.402;2023-04-24T01:39:35;99842.50;;;15.80;51.99
31299;BME280;17927;52.350;13.402;2023-04-24T01:42:00;99841.66;;;15.79;52.37
31299;BME280;17927;52.350;13.402;2023-04-24T01:44:27;99828.06;;;15.79;52.38
31299;BME280;17927;52.350;13.402;2023-04-24T01:46:54;99827.19;;;15.79;52.33
31299;BME280;17927;52.350;13.402;2023-04-24T01:49:20;99828.25;;;15.78;52.62
31299;BME280;17927;52.350;13.402;2023-04-24T01:51:45;99823.44;;;15.80;52.69
31299;BME280;17927;52.350;13.402;2023-04-24T01:54:11;99829.91;;;15.79;52.67
31299;BME280;17927;52.350;13.402;2023-04-24T01:56:41;99825.34;;;15.79;52.79
31299;BME280;17927;52.350;13.402;2023-04-24T01:59:11;99827.19;;;15.79;52.91
31299;BME280;17927;52.350;13.402;2023-04-24T02:01:37;99828.06;;;15.79;52.78
31299;BME280;17927;52.350;13.402;2023-04-24T02:04:03;99824.47;;;15.79;53.07
31299;BME280;17927;52.350;13.402;2023-04-24T02:06:28;99824.47;;;15.79;53.16
31299;BME280;17927;52.350;13.402;2023-04-24T02:08:53;99816.31;;;15.79;53.19
31299;BME280;17927;52.350;13.402;2023-04-24T02:11:19;99809.00;;;15.79;53.21
31299;BME280;17927;52.350;13.402;2023-04-24T02:13:44;99812.53;;;15.80;53.26
31299;BME280;17927;52.350;13.402;2023-04-24T02:16:09;99810.66;;;15.80;53.59
31299;BME280;17927;52.350;13.402;2023-04-24T02:18:35;99807.94;;;15.80;53.44
31299;BME280;17927;52.350;13.402;2023-04-24T02:21:00;99807.09;;;15.80;53.38
31299;BME280;17927;52.350;13.402;2023-04-24T02:23:25;99809.00;;;15.79;53.34
31299;BME280;17927;52.350;13.402;2023-04-24T02:25:52;99810.88;;;15.79;53.51
31299;BME280;17927;52.350;13.402;2023-04-24T02:28:18;99817.16;;;15.79;53.63
31299;BME280;17927;52.350;13.402;2023-04-24T02:30:43;99816.31;;;15.79;53.72
31299;BME280;17927;52.350;13.402;2023-04-24T02:33:08;99819.03;;;15.79;53.88
31299;BME280;17927;52.350;13.402;2023-04-24T02:35:34;99818.19;;;15.78;53.83
31299;BME280;17927;52.350;13.402;2023-04-24T02:37:59;99817.16;;;15.79;54.08
31299;BME280;17927;52.350;13.402;2023-04-24T02:40:25;99818.63;;;15.82;54.07
31299;BME280;17927;52.350;13.402;2023-04-24T02:42:50;99823.03;;;15.83;54.16
31299;BME280;17927;52.350;13.402;2023-04-24T02:45:15;99812.97;;;15.83;54.06
31299;BME280;17927;52.350;13.402;2023-04-24T02:47:41;99813.66;;;15.86;54.02
31299;BME280;17927;52.350;13.402;2023-04-24T02:50:06;99806.13;;;15.88;54.05
31299;BME280;17927;52.350;13.402;2023-04-24T02:52:32;99802.16;;;15.90;54.14
31299;BME280;17927;52.350;13.402;2023-04-24T02:54:57;99803.00;;;15.91;54.42
31299;BME280;17927;52.350;13.402;2023-04-24T02:57:22;99803.66;;;15.93;54.31
31299;BME280;17927;52.350;13.402;2023-04-24T02:59:47;99800.72;;;15.94;54.08
31299;BME280;17927;52.350;13.402;2023-04-24T03:02:13;99804.91;;;15.97;54.37
31299;BME280;17927;52.350;13.402;2023-04-24T03:04:38;99803.88;;;15.98;54.32
31299;BME280;17927;52.350;13.402;2023-04-24T03:07:05;99809.97;;;16.00;54.47
31299;BME280;17927;52.350;13.402;2023-04-24T03:09:30;99806.19;;;16.01;54.25
31299;BME280;17927;52.350;13.402;2023-04-24T03:11:56;99816.03;;;16.02;54.60
31299;BME280;17927;52.350;13.402;2023-04-24T03:14:23;99818.38;;;16.05;54.54
31299;BME280;17927;52.350;13.402;2023-04-24T03:16:48;99807.25;;;16.07;54.60
31299;BME280;17927;52.350;13.402;2023-04-24T03:19:13;99808.94;;;16.08;54.73
31299;BME280;17927;52.350;13.402;2023-04-24T03:21:39;99806.88;;;16.10;54.58
31299;BME280;17927;52.350;13.402;2023-04-24T03:24:07;99813.16;;;16.10;54.80
31299;BME280;17927;52.350;13.402;2023-04-24T03:26:32;99811.06;;;16.12;54.69
31299;BME280;17927;52.350;13.402;2023-04-24T03:28:57;99807.28;;;16.13;54.82
31299;BME280;17927;52.350;13.402;2023-04-24T03:31:22;99802.69;;;16.14;54.68
31299;BME280;17927;52.350;13.402;2023-04-24T03:33:48;99803.53;;;16.14;54.80
31299;BME280;17927;52.350;13.402;2023-04-24T03:36:14;99809.84;;;16.15;54.66
31299;BME280;17927;52.350;13.402;2023-04-24T03:38:39;99815.06;;;16.17;54.71
31299;BME280;17927;52.350;13.402;2023-04-24T03:41:04;99819.47;;;16.18;54.70
31299;BME280;17927;52.350;13.402;2023-04-24T03:43:29;99817.78;;;16.17;54.65
31299;BME280;17927;52.350;13.402;2023-04-24T03:45:55;99814.25;;;16.16;54.64
31299;BME280;17927;52.350;13.402;2023-04-24T03:48:20;99813.19;;;16.17;54.68
31299;BME280;17927;52.350;13.402;2023-04-24T03:50:45;99810.47;;;16.17;54.78
31299;BME280;17927;52.350;13.402;2023-04-24T03:53:10;99812.34;;;16.17;54.97
31299;BME280;17927;52.350;13.402;2023-04-24T03:55:36;99811.31;;;16.18;54.78
31299;BME280;17927;52.350;13.402;2023-04-24T03:58:01;99822.19;;;16.18;54.77
31299;BME280;17927;52.350;13.402;2023-04-24T04:00:26;99820.34;;;16.18;54.99
31299;BME280;17927;52.350;13.402;2023-04-24T04:02:51;99812.34;;;16.17;55.19
31299;BME280;17927;52.350;13.402;2023-04-24T04:05:17;99816.75;;;16.18;55.05
31299;BME280;17927;52.350;13.402;2023-04-24T04:07:42;99814.88;;;16.18;55.20
31299;BME280;17927;52.350;13.402;2023-04-24T04:10:07;99816.75;;;16.18;55.30
31299;BME280;17927;52.350;13.402;2023-04-24T04:12:33;99808.38;;;16.19;55.41
31299;BME280;17927;52.350;13.402;2023-04-24T04:14:58;99811.72;;;16.21;55.53
31299;BME280;17927;52.350;13.402;2023-04-24T04:17:24;99810.28;;;16.25;55.26
31299;BME280;17927;52.350;13.402;2023-04-24T04:19:49;99812.81;;;16.27;55.50
31299;BME280;17927;52.350;13.402;2023-04-24T04:22:14;99806.13;;;16.29;55.43
31299;BME280;17927;52.350;13.402;2023-04-24T04:24:40;99803.81;;;16.33;55.31
31299;BME280;17927;52.350;13.402;2023-04-24T04:27:06;99803.41;;;16.36;55.39
31299;BME280;17927;52.350;13.402;2023-04-24T04:29:31;99806.56;;;16.40;55.22
31299;BME280;17927;52.350;13.402;2023-04-24T04:31:58;99810.78;;;16.42;55.31
31299;BME280;17927;52.350;13.402;2023-04-24T04:34:23;99816.84;;;16.44;55.15
31299;BME280;17927;52.350;13.402;2023-04-24T04:36:48;99821.25;;;16.46;55.38
31299;BME280;17927;52.350;13.402;2023-04-24T04:39:13;99822.09;;;16.46;55.30
31299;BME280;17927;52.350;13.402;2023-04-24T04:41:40;99819.16;;;16.48;55.27
31299;BME280;17927;52.350;13.402;2023-04-24T04:44:05;99824.22;;;16.51;55.06
31299;BME280;17927;52.350;13.402;2023-04-24T04:46:31;99823.19;;;16.52;55.14
31299;BME280;17927;52.350;13.402;2023-04-24T04:49:00;99826.94;;;16.51;54.97
31299;BME280;17927;52.350;13.402;2023-04-24T04:51:27;99824.22;;;16.51;55.20
31299;BME280;17927;52.350;13.402;2023-04-24T04:53:53;99826.94;;;16.51;55.00
31299;BME280;17927;52.350;13.402;2023-04-24T05:12:48;99832.28;;;16.79;55.80
31299;BME280;17927;52.350;13.402;2023-04-24T05:15:14;99833.06;;;16.59;56.09
31299;BME280;17927;52.350;13.402;2023-04-24T05:17:39;99835.34;;;16.56;56.28
31299;BME280;17927;52.350;13.402;2023-04-24T05:20:07;99836.00;;;16.58;56.21
31299;BME280;17927;52.350;13.402;2023-04-24T05:22:33;99830.31;;;16.59;55.92
31299;BME280;17927;52.350;13.402;2023-04-24T05:24:58;99825.28;;;16.63;55.95
31299;BME280;17927;52.350;13.402;2023-04-24T05:27:24;99836.44;;;16.68;55.90
31299;BME280;17927;52.350;13.402;2023-04-24T05:29:49;99834.13;;;16.72;55.84
31299;BME280;17927;52.350;13.402;2023-04-24T05:32:14;99841.03;;;16.74;55.59
31299;BME280;17927;52.350;13.402;2023-04-24T05:34:40;99840.00;;;16.75;55.48
31299;BME280;17927;52.350;13.402;2023-04-24T05:37:05;99842.31;;;16.79;55.67
31299;BME280;17927;52.350;13.402;2023-04-24T05:39:35;99841.50;;;16.85;55.81
31299;BME280;17927;52.350;13.402;2023-04-24T05:42:01;99840.66;;;16.91;55.51
31299;BME280;17927;52.350;13.402;2023-04-24T05:44:26;99849.09;;;16.96;55.48
31299;BME280;17927;52.350;13.402;2023-04-24T05:46:51;99841.34;;;17.00;55.47
31299;BME280;17927;52.350;13.402;2023-04-24T05:49:16;99843.66;;;17.03;55.65
31299;BME280;17927;52.350;13.402;2023-04-24T05:51:42;99853.31;;;17.05;55.17
31299;BME280;17927;52.350;13.402;2023-04-24T05:54:07;99859.63;;;17.06;55.32
31299;BME280;17927;52.350;13.402;2023-04-24T05:56:32;99858.56;;;17.07;55.10
31299;BME280;17927;52.350;13.402;2023-04-24T05:58:58;99854.56;;;17.10;55.22
31299;BME280;17927;52.350;13.402;2023-04-24T06:01:23;99856.25;;;17.11;55.49
31299;BME280;17927;52.350;13.402;2023-04-24T06:03:50;99858.34;;;17.15;55.33
31299;BME280;17927;52.350;13.402;2023-04-24T06:06:15;99867.00;;;17.26;55.79
31299;BME280;17927;52.350;13.402;2023-04-24T06:08:41;99867.63;;;17.41;55.81
31299;BME280;17927;52.350;13.402;2023-04-24T06:11:07;99860.72;;;17.59;55.51
31299;BME280;17927;52.350;13.402;2023-04-24T06:13:32;99867.59;;;17.81;55.42
31299;BME280;17927;52.350;13.402;2023-04-24T06:15:57;99879.78;;;18.06;55.20
31299;BME280;17927;52.350;13.402;2023-04-24T06:18:23;99869.47;;;18.15;54.26
31299;BME280;17927;52.350;13.402;2023-04-24T06:20:48;99864.00;;;18.15;53.96
31299;BME280;17927;52.350;13.402;2023-04-24T06:23:14;99878.69;;;18.14;53.44
31299;BME280;17927;52.350;13.402;2023-04-24T06:25:40;99876.78;;;18.14;53.77
31299;BME280;17927;52.350;13.402;2023-04-24T06:28:05;99870.88;;;18.24;54.01
31299;BME280;17927;52.350;13.402;2023-04-24T06:30:30;99871.44;;;18.46;54.03
31299;BME280;17927;52.350;13.402;2023-04-24T06:32:56;99891.53;;;18.72;53.99
31299;BME280;17927;52.350;13.402;2023-04-24T06:35:21;99886.38;;;18.96;53.54
31299;BME280;17927;52.350;13.402;2023-04-24T06:37:46;99875.72;;;19.20;52.97
31299;BME280;17927;52.350;13.402;2023-04-24T06:40:12;99878.34;;;19.33;52.28
31299;BME280;17927;52.350;13.402;2023-04-24T06:42:37;99881.66;;;19.42;51.81
31299;BME280;17927;52.350;13.402;2023-04-24T06:45:03;99877.63;;;19.44;51.63
31299;BME280;17927;52.350;13.402;2023-04-24T06:47:29;99881.22;;;19.45;51.08
31299;BME280;17927;52.350;13.402;2023-04-24T06:49:54;99878.69;;;19.43;50.87
31299;BME280;17927;52.350;13.402;2023-04-24T06:52:20;99871.09;;;19.45;51.02
31299;BME280;17927;52.350;13.402;2023-04-24T06:54:45;99876.13;;;19.48;50.84
31299;BME280;17927;52.350;13.402;2023-04-24T06:57:10;99872.31;;;19.50;50.43
31299;BME280;17927;52.350;13.402;2023-04-24T06:59:36;99868.09;;;19.54;51.00
31299;BME280;17927;52.350;13.402;2023-04-24T07:02:02;99875.63;;;19.58;50.41
31299;BME280;17927;52.350;13.402;2023-04-24T07:04:27;99874.94;;;19.63;50.26
31299;BME280;17927;52.350;13.402;2023-04-24T07:06:53;99866.50;;;19.65;50.18
31299;BME280;17927;52.350;13.402;2023-04-24T07:09:23;99870.47;;;19.69;50.00
31299;BME280;17927;52.350;13.402;2023-04-24T07:11:49;99857.75;;;19.74;49.67
31299;BME280;17927;52.350;13.402;2023-04-24T07:14:15;99866.16;;;19.80;49.62
31299;BME280;17927;52.350;13.402;2023-04-24T07:16:40;99867.59;;;19.82;49.75
31299;BME280;17927;52.350;13.402;2023-04-24T07:19:05;99862.50;;;19.86;49.58
31299;BME280;17927;52.350;13.402;2023-04-24T07:21:31;99874.50;;;19.91;49.75
31299;BME280;17927;52.350;13.402;2023-04-24T07:23:57;99874.03;;;19.95;49.26
31299;BME280;17927;52.350;13.402;2023-04-24T07:26:22;99879.91;;;19.98;49.13
31299;BME280;17927;52.350;13.402;2023-04-24T07:28:48;99872.06;;;20.02;48.91
31299;BME280;17927;52.350;13.402;2023-04-24T07:31:13;99872.69;;;20.04;48.46
31299;BME280;17927;52.350;13.402;2023-04-24T07:33:38;99881.28;;;20.07;48.30
31299;BME280;17927;52.350;13.402;2023-04-24T07:36:04;99867.97;;;20.11;48.30
31299;BME280;17927;52.350;13.402;2023-04-24T07:38:30;99874.50;;;20.10;47.83
31299;BME280;17927;52.350;13.402;2023-04-24T07:40:56;99877.25;;;20.10;47.56
31299;BME280;17927;52.350;13.402;2023-04-24T07:43:21;99875.13;;;20.12;47.69
31299;BME280;17927;52.350;13.402;2023-04-24T07:45:47;99867.75;;;20.13;47.29
31299;BME280;17927;52.350;13.402;2023-04-24T07:48:12;99873.00;;;20.14;47.57
31299;BME280;17927;52.350;13.402;2023-04-24T07:50:40;99871.94;;;20.15;47.28
31299;BME280;17927;52.350;13.402;2023-04-24T07:53:05;99875.03;;;20.19;47.09
31299;BME280;17927;52.350;13.402;2023-04-24T07:55:30;99867.66;;;20.19;47.40
31299;BME280;17927;52.350;13.402;2023-04-24T07:57:56;99864.84;;;20.26;47.67
31299;BME280;17927;52.350;13.402;2023-04-24T08:00:21;99855.94;;;20.31;47.29
31299;BME280;17927;52.350;13.402;2023-04-24T08:02:46;99871.69;;;20.35;46.94
31299;BME280;17927;52.350;13.402;2023-04-24T08:05:12;99858.59;;;20.37;46.46
31299;BME280;17927;52.350;13.402;2023-04-24T08:07:37;99868.50;;;20.38;46.07
31299;BME280;17927;52.350;13.402;2023-04-24T08:10:03;99866.81;;;20.37;45.70
31299;BME280;17927;52.350;13.402;2023-04-24T08:12:29;99867.88;;;20.36;46.01
31299;BME280;17927;52.350;13.402;2023-04-24T08:14:54;99857.53;;;20.38;45.79
31299;BME280;17927;52.350;13.402;2023-04-24T08:17:20;99861.50;;;20.43;45.89
31299;BME280;17927;52.350;13.402;2023-04-24T08:19:45;99867.50;;;20.51;45.95
31299;BME280;17927;52.350;13.402;2023-04-24T08:22:14;99857.66;;;20.62;46.20
31299;BME280;17927;52.350;13.402;2023-04-24T08:24:39;99859.63;;;20.74;46.03
31299;BME280;17927;52.350;13.402;2023-04-24T08:27:04;99864.59;;;20.83;45.90
31299;BME280;17927;52.350;13.402;2023-04-24T08:29:30;99866.53;;;20.95;46.19
31299;BME280;17927;52.350;13.402;2023-04-24T08:31:55;99858.56;;;21.05;46.21
31299;BME280;17927;52.350;13.402;2023-04-24T08:34:21;99858.44;;;21.12;45.56
31299;BME280;17927;52.350;13.402;2023-04-24T08:36:46;99859.19;;;21.19;45.44
31299;BME280;17927;52.350;13.402;2023-04-24T08:39:12;99863.75;;;21.25;45.63
31299;BME280;17927;52.350;13.402;2023-04-24T08:41:37;99865.91;;;21.35;45.70
31299;BME280;17927;52.350;13.402;2023-04-24T08:44:03;99860.91;;;21.44;45.22
31299;BME280;17927;52.350;13.402;2023-04-24T08:46:29;99872.63;;;21.51;45.29
31299;BME280;17927;52.350;13.402;2023-04-24T08:48:55;99862.00;;;21.55;45.03
31299;BME280;17927;52.350;13.402;2023-04-24T08:51:22;99863.91;;;21.54;44.55
31299;BME280;17927;52.350;13.402;2023-04-24T08:53:48;99860.56;;;21.52;44.07
31299;BME280;17927;52.350;13.402;2023-04-24T08:56:13;99867.34;;;21.50;44.04
31299;BME280;17927;52.350;13.402;2023-04-24T08:58:38;99868.66;;;21.47;44.46
31299;BME280;17927;52.350;13.402;2023-04-24T09:01:04;99878.59;;;21.48;44.63
31299;BME280;17927;52.350;13.402;2023-04-24T09:03:31;99864.59;;;21.50;44.80
31299;BME280;17927;52.350;13.402;2023-04-24T09:05:57;99879.19;;;21.50;44.93
31299;BME280;17927;52.350;13.402;2023-04-24T09:08:25;99868.22;;;21.50;44.71
31299;BME280;17927;52.350;13.402;2023-04-24T09:10:51;99875.03;;;21.48;44.12
31299;BME280;17927;52.350;13.402;2023-04-24T09:13:18;99877.63;;;21.42;44.33
31299;BME280;17927;52.350;13.402;2023-04-24T09:15:43;99872.00;;;21.37;44.53
31299;BME280;17927;52.350;13.402;2023-04-24T09:18:09;99875.22;;;21.34;44.25
31299;BME280;17927;52.350;13.402;2023-04-24T09:20:34;99889.44;;;21.31;44.23
31299;BME280;17927;52.350;13.402;2023-04-24T09:23:01;99877.00;;;21.28;44.02
31299;BME280;17927;52.350;13.402;2023-04-24T09:25:34;99893.13;;;21.25;43.51
31299;BME280;17927;52.350;13.402;2023-04-24T09:28:02;99876.28;;;21.21;43.97
31299;BME280;17927;52.350;13.402;2023-04-24T09:30:28;99881.97;;;21.20;43.47
31299;BME280;17927;52.350;13.402;2023-04-24T09:33:10;99890.00;;;21.21;44.01
31299;BME280;17927;52.350;13.402;2023-04-24T09:35:35;99885.94;;;21.24;44.04
31299;BME280;17927;52.350;13.402;2023-04-24T09:38:00;99886.31;;;21.27;43.68
31299;BME280;17927;52.350;13.402;2023-04-24T09:40:26;99884.41;;;21.28;43.93
31299;BME280;17927;52.350;13.402;2023-04-24T09:42:53;99877.25;;;21.27;43.29
31299;BME280;17927;52.350;13.402;2023-04-24T09:45:20;99886.31;;;21.27;43.30
31299;BME280;17927;52.350;13.402;2023-04-24T09:47:45;99882.97;;;21.25;43.32
31299;BME280;17927;52.350;13.402;2023-04-24T09:50:12;99883.81;;;21.26;43.30
31299;BME280;17927;52.350;13.402;2023-04-24T09:52:45;99879.97;;;21.27;43.08
31299;BME280;17927;52.350;13.402;2023-04-24T09:55:13;99874.50;;;21.27;43.42
31299;BME280;17927;52.350;13.402;2023-04-24T09:57:48;99877.00;;;21.28;43.64
31299;BME280;17927;52.350;13.402;2023-04-24T10:00:18;99886.91;;;21.29;43.33
31299;BME280;17927;52.350;13.402;2023-04-24T10:02:44;99879.53;;;21.30;43.07
31299;BME280;17927;52.350;13.402;2023-04-24T10:05:11;99873.56;;;21.33;43.66
31299;BME280;17927;52.350;13.402;2023-04-24T10:07:37;99881.09;;;21.38;43.47
31299;BME280;17927;52.350;13.402;2023-04-24T10:10:03;99877.28;;;21.39;43.41
31299;BME280;17927;52.350;13.402;2023-04-24T10:12:29;99882.28;;;21.42;43.14
31299;BME280;17927;52.350;13.402;2023-04-24T10:14:56;99871.66;;;21.45;43.14
31299;BME280;17927;52.350;13.402;2023-04-24T10:17:22;99872.16;;;21.54;43.32
31299;BME280;17927;52.350;13.402;2023-04-24T10:19:49;99864.03;;;21.59;43.10
31299;BME280;17927;52.350;13.402;2023-04-24T10:22:15;99861.19;;;21.66;43.49
31299;BME280;17927;52.350;13.402;2023-04-24T10:24:42;99856.78;;;21.77;43.18
31299;BME280;17927;52.350;13.402;2023-04-24T10:27:09;99871.25;;;21.84;42.97
31299;BME280;17927;52.350;13.402;2023-04-24T10:29:35;99875.41;;;21.87;42.52
31299;BME280;17927;52.350;13.402;2023-04-24T10:32:01;99865.75;;;21.84;42.12
31299;BME280;17927;52.350;13.402;2023-04-24T10:34:26;99863.47;;;21.81;42.31
31299;BME280;17927;52.350;13.402;2023-04-24T10:36:53;99871.13;;;21.79;42.11
31299;BME280;17927;52.350;13.402;2023-04-24T10:39:19;99866.47;;;21.80;42.15
31299;BME280;17927;52.350;13.402;2023-04-24T10:41:48;99864.53;;;21.80;41.83
31299;BME280;17927;52.350;13.402;2023-04-24T10:44:15;99864.28;;;21.82;42.20
31299;BME280;17927;52.350;13.402;2023-04-24T10:46:44;99866.81;;;21.83;41.93
31299;BME280;17927;52.350;13.402;2023-04-24T10:49:10;99863.81;;;21.85;42.26
31299;BME280;17927;52.350;13.402;2023-04-24T10:51:52;99845.53;;;21.90;41.55
31299;BME280;17927;52.350;13.402;2023-04-24T10:59:43;99850.44;;;22.00;41.96
31299;BME280;17927;52.350;13.402;2023-04-24T11:02:08;99844.78;;;22.07;41.76
31299;BME280;17927;52.350;13.402;2023-04-24T11:04:34;99862.63;;;22.16;41.96
31299;BME280;17927;52.350;13.402;2023-04-24T11:07:00;99861.63;;;22.23;40.98
31299;BME280;17927;52.350;13.402;2023-04-24T11:09:27;99858.88;;;22.23;40.72
31299;BME280;17927;52.350;13.402;2023-04-24T11:12:03;99862.09;;;22.19;41.06
31299;BME280;17927;52.350;13.402;2023-04-24T11:14:29;99862.50;;;22.11;40.62
31299;BME280;17927;52.350;13.402;2023-04-24T11:16:54;99882.13;;;22.03;41.33
31299;BME280;17927;52.350;13.402;2023-04-24T11:19:22;99903.50;;;21.89;43.30
31299;BME280;17927;52.350;13.402;2023-04-24T11:22:01;99895.72;;;21.62;46.70
31299;BME280;17927;52.350;13.402;2023-04-24T11:24:40;99885.00;;;21.30;48.03
31299;BME280;17927;52.350;13.402;2023-04-24T11:27:11;99886.84;;;21.06;49.19
31299;BME280;17927;52.350;13.402;2023-04-24T11:34:57;99874.25;;;20.86;52.44
31299;BME280;17927;52.350;13.402;2023-04-24T11:37:25;99868.06;;;20.91;52.65
31299;BME280;17927;52.350;13.402;2023-04-24T11:39:52;99867.13;;;20.97;53.50
31299;BME280;17927;52.350;13.402;2023-04-24T11:42:18;99863.22;;;21.05;53.71
31299;BME280;17927;52.350;13.402;2023-04-24T11:44:43;99859.06;;;21.14;53.72
31299;BME280;17927;52.350;13.402;2023-04-24T11:47:09;99868.66;;;21.23;53.33
31299;BME280;17927;52.350;13.402;2023-04-24T11:49:36;99863.66;;;21.32;52.62
31299;BME280;17927;52.350;13.402;2023-04-24T11:52:02;99867.97;;;21.40;52.36
31299;BME280;17927;52.350;13.402;2023-04-24T11:54:27;99870.00;;;21.44;51.06
31299;BME280;17927;52.350;13.402;2023-04-24T11:56:53;99873.56;;;21.45;50.98
31299;BME280;17927;52.350;13.402;2023-04-24T11:59:18;99885.41;;;21.45;50.15
31299;BME280;17927;52.350;13.402;2023-04-24T12:01:44;99877.03;;;21.40;50.18
31299;BME280;17927;52.350;13.402;2023-04-24T12:04:11;99876.41;;;21.38;50.41
31299;BME280;17927;52.350;13.402;2023-04-24T12:06:36;99865.44;;;21.38;50.41
31299;BME280;17927;52.350;13.402;2023-04-24T12:09:02;99872.13;;;21.42;50.15
31299;BME280;17927;52.350;13.402;2023-04-24T12:11:27;99861.03;;;21.49;50.20
31299;BME280;17927;52.350;13.402;2023-04-24T12:13:53;99871.91;;;21.56;49.41
31299;BME280;17927;52.350;13.402;2023-04-24T12:16:18;99877.56;;;21.61;48.69
31299;BME280;17927;52.350;13.402;2023-04-24T12:18:45;99874.34;;;21.64;47.90
31299;BME280;17927;52.350;13.402;2023-04-24T12:21:23;99866.47;;;21.68;45.34
31299;BME280;17927;52.350;13.402;2023-04-24T12:23:54;99878.06;;;21.70;44.83
31299;BME280;17927;52.350;13.402;2023-04-24T12:26:20;99876.63;;;21.79;43.51
31299;BME280;17927;52.350;13.402;2023-04-24T12:28:47;99862.16;;;21.84;43.37
31299;BME280;17927;52.350;13.402;2023-04-24T12:31:14;99864.06;;;21.83;42.21
31299;BME280;17927;52.350;13.402;2023-04-24T12:33:39;99857.72;;;21.83;41.50
31299;BME280;17927;52.350;13.402;2023-04-24T12:36:04;99865.16;;;21.82;40.90
31299;BME280;17927;52.350;13.402;2023-04-24T12:38:31;99849.72;;;21.81;40.19
31299;BME280;17927;52.350;13.402;2023-04-24T12:41:07;99853.31;;;21.82;38.83
31299;BME280;17927;52.350;13.402;2023-04-24T12:43:32;99862.63;;;21.81;37.19
31299;BME280;17927;52.350;13.402;2023-04-24T12:45:58;99857.13;;;21.81;37.71
31299;BME280;17927;52.350;13.402;2023-04-24T12:48:24;99846.03;;;21.87;38.26
31299;BME280;17927;52.350;13.402;2023-04-24T12:50:49;99853.91;;;22.08;39.09
31299;BME280;17927;52.350;13.402;2023-04-24T12:53:15;99845.25;;;22.28;38.09
31299;BME280;17927;52.350;13.402;2023-04-24T12:55:40;99849.75;;;22.46;37.38
31299;BME280;17927;52.350;13.402;2023-04-24T12:58:06;99851.00;;;22.67;38.40
31299;BME280;17927;52.350;13.402;2023-04-24T13:00:32;99862.06;;;22.84;37.40
31299;BME280;17927;52.350;13.402;2023-04-24T13:02:57;99846.47;;;22.90;36.54
31299;BME280;17927;52.350;13.402;2023-04-24T13:05:22;99860.09;;;22.96;37.25
31299;BME280;17927;52.350;13.402;2023-04-24T13:07:48;99857.47;;;23.19;37.50
31299;BME280;17927;52.350;13.402;2023-04-24T13:10:13;99855.16;;;23.45;35.53